createdAt,value
2019-04-21T00:00:06.184Z,61.88
2019-04-21T00:01:05.492Z,62.26
2019-04-21T00:02:01.670Z,61.50
2019-04-21T00:03:07.376Z,61.79
2019-04-21T00:04:12.316Z,61.98
2019-04-21T00:05:24.975Z,61.28
2019-04-21T00:06:24.981Z,61.85
2019-04-21T00:07:20.563Z,62.04
2019-04-21T00:08:33.522Z,62.23
2019-04-21T00:09:31.316Z,62.23
2019-04-21T00:10:28.511Z,62.14
2019-04-21T00:11:22.125Z,62.23
2019-04-21T00:12:20.607Z,62.71
2019-04-21T00:13:20.468Z,62.81
2019-04-21T00:14:14.091Z,62.71
2019-04-21T00:15:15.801Z,62.43
2019-04-21T00:16:06.741Z,62.62
2019-04-21T00:17:09.071Z,63.00
2019-04-21T00:18:04.421Z,62.71
2019-04-21T00:19:10.347Z,62.71
2019-04-21T00:20:15.553Z,62.71
2019-04-21T00:21:10.996Z,62.23
2019-04-21T00:22:14.883Z,62.77
2019-04-21T00:23:18.134Z,62.87
2019-04-21T00:24:16.555Z,63.35
2019-04-21T00:25:13.912Z,63.73
2019-04-21T00:26:15.748Z,63.57
2019-04-21T00:27:18.641Z,63.96
2019-04-21T00:28:28.922Z,63.39
2019-04-21T00:29:26.810Z,62.71
2019-04-21T00:30:21.746Z,63.48
2019-04-21T00:31:23.038Z,63.19
2019-04-21T00:32:14.578Z,63.39
2019-04-21T00:33:09.038Z,63.86
2019-04-21T00:34:00.674Z,63.48
2019-04-21T00:35:06.389Z,63.16
2019-04-21T00:36:09.589Z,62.90
2019-04-21T00:37:14.605Z,63.54
2019-04-21T00:38:25.049Z,63.45
2019-04-21T00:39:28.659Z,63.35
2019-04-21T00:40:25.651Z,63.54
2019-04-21T00:41:26.068Z,63.54
2019-04-21T00:42:21.606Z,64.22
2019-04-21T00:43:19.605Z,64.22
2019-04-21T00:44:12.898Z,63.73
2019-04-21T00:45:15.288Z,63.16
2019-04-21T00:46:12.340Z,63.54
2019-04-21T00:47:24.130Z,64.31
2019-04-21T00:48:25.443Z,63.73
2019-04-21T00:49:18.155Z,63.93
2019-04-21T00:50:20.552Z,64.22
2019-04-21T00:52:30.273Z,64.02
2019-04-21T00:53:31.793Z,63.54
2019-04-21T00:54:27.769Z,64.12
2019-04-21T00:55:30.909Z,64.12
2019-04-21T00:56:23.905Z,63.54
2019-04-21T00:57:25.283Z,64.02
2019-04-21T00:58:23.694Z,64.12
2019-04-21T00:59:26.913Z,64.56
2019-04-21T01:00:26.143Z,63.99
2019-04-21T01:01:21.832Z,63.99
2019-04-21T01:02:16.863Z,64.75
2019-04-21T01:03:21.724Z,65.33
2019-04-21T01:04:26.349Z,64.66
2019-04-21T01:05:22.442Z,64.75
2019-04-21T01:06:22.732Z,64.75
2019-04-21T01:07:25.710Z,64.47
2019-04-21T01:08:23.117Z,64.75
2019-04-21T01:09:19.755Z,65.52
2019-04-21T01:10:14.864Z,65.52
2019-04-21T01:11:18.914Z,65.52
2019-04-21T01:12:23.288Z,65.52
2019-04-21T01:13:21.647Z,65.71
2019-04-21T01:14:30.441Z,65.52
2019-04-21T01:15:24.686Z,65.23
2019-04-21T01:16:20.850Z,65.61
2019-04-21T01:17:22.945Z,65.61
2019-04-21T01:18:24.478Z,65.61
2019-04-21T01:19:16.785Z,65.90
2019-04-21T01:20:12.959Z,65.42
2019-04-21T01:20:59.291Z,65.42
2019-04-21T01:21:59.222Z,65.39
2019-04-21T01:23:00.251Z,65.39
2019-04-21T01:24:10.371Z,66.16
2019-04-21T01:25:09.050Z,65.68
2019-04-21T01:26:13.119Z,65.48
2019-04-21T01:27:11.110Z,66.47
2019-04-21T01:28:13.605Z,66.28
2019-04-21T01:29:15.477Z,65.52
2019-04-21T01:30:16.493Z,65.04
2019-04-21T01:31:17.453Z,65.71
2019-04-21T01:32:28.326Z,65.68
2019-04-21T01:33:21.752Z,65.39
2019-04-21T01:34:22.007Z,65.77
2019-04-21T01:35:21.075Z,65.87
2019-04-21T01:36:15.622Z,65.48
2019-04-21T01:38:27.310Z,66.35
2019-04-21T01:39:19.658Z,66.44
2019-04-21T01:40:24.182Z,66.73
2019-04-21T01:41:41.309Z,65.77
2019-04-21T01:42:15.854Z,66.06
2019-04-21T01:43:21.868Z,66.63
2019-04-21T01:44:25.666Z,66.06
2019-04-21T01:46:13.894Z,66.63
2019-04-21T01:47:11.807Z,66.83
2019-04-21T01:48:15.878Z,66.63
2019-04-21T01:49:11.567Z,66.73
2019-04-21T01:50:07.077Z,68.84
2019-04-21T01:51:16.043Z,68.26
2019-04-21T01:52:24.715Z,67.78
2019-04-21T01:53:24.855Z,67.40
2019-04-21T01:54:23.507Z,68.07
2019-04-21T01:55:17.808Z,67.21
2019-04-21T01:56:16.948Z,67.49
2019-04-21T01:57:20.098Z,67.49
2019-04-21T01:58:12.886Z,67.11
2019-04-21T01:59:06.997Z,67.49
2019-04-21T02:00:12.463Z,67.97
2019-04-21T02:01:21.593Z,67.97
2019-04-21T02:02:18.787Z,68.74
2019-04-21T02:03:37.332Z,68.84
2019-04-21T02:04:26.977Z,68.84
2019-04-21T02:05:26.488Z,68.74
2019-04-21T02:06:21.184Z,70.17
2019-04-21T02:07:21.905Z,70.27
2019-04-21T02:08:14.842Z,69.02
2019-04-21T02:09:17.299Z,68.84
2019-04-21T02:10:21.130Z,68.80
2019-04-21T02:11:26.376Z,68.45
2019-04-21T02:12:20.951Z,69.18
2019-04-21T02:13:17.394Z,70.27
2019-04-21T02:14:22.996Z,70.27
2019-04-21T02:15:36.516Z,69.98
2019-04-21T02:16:18.170Z,70.27
2019-04-21T02:17:16.418Z,69.66
2019-04-21T02:18:18.571Z,69.76
2019-04-21T02:19:13.771Z,69.98
2019-04-21T02:20:12.030Z,69.95
2019-04-21T02:21:03.726Z,70.52
2019-04-21T02:22:19.273Z,70.42
2019-04-21T02:23:28.271Z,70.81
2019-04-21T02:24:23.838Z,71.00
2019-04-21T02:25:19.766Z,71.00
2019-04-21T02:26:20.591Z,70.61
2019-04-21T02:27:19.191Z,71.09
2019-04-21T02:28:22.432Z,71.38
2019-04-21T02:29:21.848Z,71.28
2019-04-21T02:30:33.598Z,71.95
2019-04-21T02:31:26.646Z,72.24
2019-04-21T02:32:24.748Z,73.00
2019-04-21T02:33:43.099Z,73.58
2019-04-21T02:34:27.551Z,73.77
2019-04-21T02:37:36.772Z,74.73
2019-04-21T02:38:30.262Z,75.01
2019-04-21T02:40:36.238Z,73.92
2019-04-21T02:41:34.632Z,75.07
2019-04-21T02:42:32.418Z,76.12
2019-04-21T02:43:50.023Z,75.64
2019-04-21T02:44:34.226Z,75.45
2019-04-21T02:46:31.298Z,75.45
2019-04-21T02:47:37.197Z,76.12
2019-04-21T02:48:28.564Z,77.65
2019-04-21T02:49:38.162Z,77.94
2019-04-21T02:50:17.597Z,77.45
2019-04-21T02:51:33.678Z,77.99
2019-04-21T02:53:46.028Z,78.18
2019-04-21T02:55:30.500Z,77.55
2019-04-21T02:56:48.702Z,77.99
2019-04-21T02:57:22.904Z,76.84
2019-04-21T02:59:33.695Z,76.75
2019-04-21T03:02:33.778Z,77.13
2019-04-21T03:03:27.667Z,77.26
2019-04-21T03:04:30.292Z,78.18
2019-04-21T03:05:41.682Z,77.80
2019-04-21T03:06:39.389Z,77.70
2019-04-21T03:07:46.499Z,77.70
2019-04-21T03:08:37.939Z,77.61
2019-04-21T03:09:42.709Z,78.47
2019-04-21T03:11:34.984Z,79.33
2019-04-21T03:12:22.202Z,79.14
2019-04-21T03:13:29.503Z,79.33
2019-04-21T03:14:41.307Z,79.14
2019-04-21T03:15:29.238Z,79.52
2019-04-21T03:16:32.372Z,79.99
2019-04-21T03:17:29.220Z,78.75
2019-04-21T03:19:36.209Z,78.28
2019-04-21T03:20:23.964Z,79.61
2019-04-21T03:21:28.674Z,78.56
2019-04-21T03:22:24.311Z,78.56
2019-04-21T03:23:29.776Z,78.09
2019-04-21T03:24:29.425Z,79.61
2019-04-21T03:28:30.514Z,78.56
2019-04-21T03:29:29.508Z,77.99
2019-04-21T03:30:45.167Z,77.23
2019-04-21T03:34:12.215Z,78.66
2019-04-21T03:36:04.585Z,79.33
2019-04-21T03:36:47.821Z,78.56
2019-04-21T03:38:31.381Z,78.28
2019-04-21T03:39:32.499Z,77.70
2019-04-21T03:40:18.817Z,77.23
2019-04-21T03:41:32.320Z,77.13
2019-04-21T03:44:22.844Z,76.94
2019-04-21T03:45:36.848Z,76.84
2019-04-21T03:46:32.516Z,76.94
2019-04-21T03:47:30.899Z,76.37
2019-04-21T03:48:28.780Z,76.27
2019-04-21T03:49:36.477Z,77.42
2019-04-21T03:50:29.677Z,77.03
2019-04-21T03:52:37.079Z,77.80
2019-04-21T03:53:26.627Z,78.37
2019-04-21T03:54:32.908Z,76.56
2019-04-21T03:56:45.263Z,75.89
2019-04-21T03:57:38.751Z,77.03
2019-04-21T03:59:16.117Z,77.51
2019-04-21T04:00:44.922Z,76.56
2019-04-21T04:01:21.992Z,77.03
2019-04-21T04:02:45.199Z,75.98
2019-04-21T04:05:42.341Z,75.22
2019-04-21T04:07:33.790Z,75.60
2019-04-21T04:08:44.507Z,75.13
2019-04-21T04:10:22.822Z,75.13
2019-04-21T04:12:23.137Z,75.79
2019-04-21T04:13:26.542Z,75.13
2019-04-21T04:15:35.106Z,74.93
2019-04-21T04:18:41.143Z,75.22
2019-04-21T04:19:30.589Z,75.51
2019-04-21T04:21:30.372Z,75.79
2019-04-21T04:23:31.356Z,75.79
2019-04-21T04:25:27.997Z,75.79
2019-04-21T04:26:22.111Z,75.89
2019-04-21T04:27:54.028Z,75.42
2019-04-21T04:28:28.140Z,76.08
2019-04-21T04:30:32.397Z,75.79
2019-04-21T04:31:35.383Z,75.79
2019-04-21T04:32:23.146Z,76.18
2019-04-21T04:33:30.414Z,75.89
2019-04-21T04:36:39.969Z,75.79
2019-04-21T04:39:36.693Z,75.13
2019-04-21T04:41:49.576Z,75.13
2019-04-21T04:44:42.042Z,76.27
2019-04-21T04:45:38.460Z,75.13
2019-04-21T04:46:33.346Z,75.98
2019-04-21T04:47:29.947Z,76.27
2019-04-21T04:48:20.342Z,75.60
2019-04-21T04:49:39.031Z,75.42
2019-04-21T04:50:33.813Z,75.03
2019-04-21T04:51:35.876Z,76.18
2019-04-21T04:54:32.377Z,75.79
2019-04-21T04:56:38.385Z,76.46
2019-04-21T04:57:39.573Z,75.89
2019-04-21T04:58:39.824Z,75.79
2019-04-21T04:59:35.451Z,76.18
2019-04-21T05:01:32.652Z,76.27
2019-04-21T05:02:27.731Z,76.56
2019-04-21T05:04:23.831Z,76.56
2019-04-21T05:05:26.796Z,75.13
2019-04-21T05:07:25.004Z,75.98
2019-04-21T05:08:31.445Z,75.89
2019-04-21T05:10:33.018Z,75.89
2019-04-21T05:11:36.758Z,76.18
2019-04-21T05:12:15.968Z,75.79
2019-04-21T05:13:26.044Z,75.70
2019-04-21T05:15:19.183Z,76.31
2019-04-21T05:16:36.755Z,75.51
2019-04-21T05:18:24.413Z,75.89
2019-04-21T05:19:32.745Z,75.79
2019-04-21T05:20:17.024Z,75.98
2019-04-21T05:21:30.242Z,76.18
2019-04-21T05:24:36.036Z,75.98
2019-04-21T05:25:23.336Z,75.79
2019-04-21T05:31:08.687Z,76.21
2019-04-21T05:34:18.591Z,76.12
2019-04-21T05:35:15.628Z,76.31
2019-04-21T05:37:39.808Z,75.93
2019-04-21T05:38:34.633Z,75.74
2019-04-21T05:41:37.326Z,75.93
2019-04-21T05:42:39.637Z,75.93
2019-04-21T05:43:50.336Z,76.50
2019-04-21T05:51:20.480Z,76.25
2019-04-21T05:52:19.832Z,75.96
2019-04-21T05:56:03.569Z,75.83
2019-04-21T05:56:59.763Z,76.06
2019-04-21T06:06:27.478Z,76.45
2019-04-21T06:08:25.336Z,76.45
2019-04-21T06:09:35.198Z,76.82
2019-04-21T06:10:30.473Z,77.21
2019-04-21T06:11:26.669Z,76.35
2019-04-21T06:12:21.894Z,76.45
2019-04-21T06:13:51.967Z,75.96
2019-04-21T06:14:31.122Z,76.67
2019-04-21T06:15:32.589Z,75.87
2019-04-21T06:16:34.474Z,76.96
2019-04-21T06:17:31.441Z,77.15
2019-04-21T06:22:22.182Z,76.57
2019-04-21T06:26:17.905Z,76.86
2019-04-21T06:27:57.501Z,77.44
2019-04-21T06:29:13.363Z,77.34
2019-04-21T06:31:05.490Z,77.34
2019-04-21T06:32:20.434Z,76.39
2019-04-21T06:34:04.775Z,77.34
2019-04-21T06:35:13.355Z,77.34
2019-04-21T06:38:51.408Z,76.48
2019-04-21T06:41:27.760Z,77.15
2019-04-21T06:44:16.575Z,77.28
2019-04-21T06:47:30.206Z,77.28
2019-04-21T06:49:13.167Z,77.48
2019-04-21T06:50:25.635Z,76.71
2019-04-21T06:51:22.551Z,76.62
2019-04-21T06:52:41.890Z,76.90
2019-04-21T06:53:35.781Z,76.65
2019-04-21T06:54:23.579Z,77.33
2019-04-21T06:56:05.038Z,76.90
2019-04-21T06:56:27.088Z,76.84
2019-04-21T06:57:26.010Z,76.56
2019-04-21T06:58:18.365Z,76.37
2019-04-21T06:59:14.887Z,76.84
2019-04-21T07:00:18.435Z,76.84
2019-04-21T07:03:58.947Z,76.75
2019-04-21T07:07:54.701Z,76.12
2019-04-21T07:14:59.493Z,75.96
2019-04-21T07:16:04.045Z,76.54
2019-04-21T07:21:29.801Z,75.39
2019-04-21T07:22:33.761Z,74.72
2019-04-21T07:23:30.270Z,74.57
2019-04-21T07:25:29.758Z,74.08
2019-04-21T07:26:25.302Z,74.27
2019-04-21T07:27:30.332Z,73.13
2019-04-21T07:28:25.382Z,73.41
2019-04-21T07:29:32.114Z,73.41
2019-04-21T07:30:31.721Z,72.74
2019-04-21T07:31:28.966Z,72.59
2019-04-21T07:32:26.538Z,72.20
2019-04-21T07:34:28.964Z,72.01
2019-04-21T07:35:25.011Z,71.92
2019-04-21T07:36:32.349Z,71.53
2019-04-21T07:37:25.524Z,72.11
2019-04-21T07:38:23.969Z,72.11
2019-04-21T07:39:22.114Z,71.44
2019-04-21T07:40:22.294Z,72.05
2019-04-21T07:41:20.020Z,71.66
2019-04-21T07:42:20.303Z,71.86
2019-04-21T07:43:16.417Z,71.47
2019-04-21T07:44:17.052Z,70.70
2019-04-21T07:45:17.938Z,71.37
2019-04-21T07:46:17.181Z,70.61
2019-04-21T07:47:25.334Z,71.12
2019-04-21T07:48:28.915Z,70.26
2019-04-21T07:49:28.112Z,69.97
2019-04-21T07:50:28.623Z,69.49
2019-04-21T07:51:25.448Z,69.49
2019-04-21T07:52:18.926Z,69.59
2019-04-21T07:53:32.286Z,69.40
2019-04-21T07:54:33.798Z,68.44
2019-04-21T07:56:09.355Z,68.44
2019-04-21T07:57:19.022Z,68.34
2019-04-21T07:58:24.327Z,68.47
2019-04-21T07:59:30.344Z,68.85
2019-04-21T08:00:45.485Z,69.34
2019-04-21T08:01:26.959Z,68.73
2019-04-21T08:02:22.153Z,68.57
2019-04-21T08:03:43.860Z,68.95
2019-04-21T08:06:58.182Z,69.05
2019-04-21T08:07:55.800Z,67.99
2019-04-21T08:09:51.494Z,66.39
2019-04-21T08:10:53.879Z,66.30
2019-04-21T08:12:54.181Z,65.14
2019-04-21T08:13:58.576Z,65.53
2019-04-21T08:16:03.107Z,65.91
2019-04-21T08:17:03.301Z,65.91
2019-04-21T08:19:12.906Z,66.39
2019-04-21T08:20:14.297Z,65.23
2019-04-21T08:21:16.425Z,65.72
2019-04-21T08:23:13.246Z,65.75
2019-04-21T08:24:14.955Z,65.08
2019-04-21T08:25:14.933Z,64.60
2019-04-21T08:26:19.126Z,64.79
2019-04-21T08:27:28.304Z,64.98
2019-04-21T08:28:09.079Z,65.17
2019-04-21T08:29:21.304Z,64.79
2019-04-21T08:30:11.517Z,63.95
2019-04-21T08:31:14.342Z,64.43
2019-04-21T08:32:14.510Z,64.15
2019-04-21T08:33:25.046Z,64.43
2019-04-21T08:34:13.943Z,64.05
2019-04-21T08:35:34.236Z,64.15
2019-04-21T08:36:19.381Z,64.63
2019-04-21T08:37:16.546Z,64.15
2019-04-21T08:38:15.105Z,64.05
2019-04-21T08:39:13.216Z,64.25
2019-04-21T08:40:19.322Z,63.48
2019-04-21T08:41:16.432Z,63.76
2019-04-21T08:42:14.215Z,63.09
2019-04-21T08:43:08.860Z,62.93
2019-04-21T08:44:16.832Z,63.31
2019-04-21T08:45:15.147Z,63.41
2019-04-21T08:46:16.942Z,62.80
2019-04-21T08:47:15.401Z,63.31
2019-04-21T08:48:10.574Z,63.12
2019-04-21T08:49:15.541Z,63.79
2019-04-21T08:50:08.442Z,62.54
2019-04-21T08:52:21.757Z,61.87
2019-04-21T08:53:21.158Z,61.19
2019-04-21T08:54:15.128Z,61.39
2019-04-21T08:55:15.552Z,61.61
2019-04-21T08:56:18.481Z,62.19
2019-04-21T08:57:20.152Z,62.29
2019-04-21T08:58:22.008Z,61.42
2019-04-21T09:00:12.283Z,61.61
2019-04-21T09:01:17.813Z,61.04
2019-04-21T09:02:14.581Z,61.74
2019-04-21T09:03:17.901Z,61.07
2019-04-21T09:04:13.183Z,60.77
2019-04-21T09:05:15.451Z,60.68
2019-04-21T09:06:16.953Z,60.10
2019-04-21T09:08:13.740Z,60.00
2019-04-21T09:09:14.365Z,60.30
2019-04-21T09:10:09.421Z,60.49
2019-04-21T09:11:05.508Z,61.16
2019-04-21T09:12:10.660Z,60.42
2019-04-21T09:13:14.897Z,61.19
2019-04-21T09:14:13.403Z,60.52
2019-04-21T09:15:08.287Z,60.32
2019-04-21T09:16:09.469Z,60.80
2019-04-21T09:17:08.296Z,59.65
2019-04-21T09:18:05.367Z,58.69
2019-04-21T09:19:04.429Z,58.88
2019-04-21T09:20:17.001Z,58.72
2019-04-21T09:21:14.909Z,58.91
2019-04-21T09:22:05.745Z,58.33
2019-04-21T09:23:11.405Z,58.72
2019-04-21T09:24:14.722Z,58.72
2019-04-21T09:25:09.382Z,58.72
2019-04-21T09:26:10.464Z,59.42
2019-04-21T09:27:08.447Z,59.03
2019-04-21T09:28:08.086Z,58.23
2019-04-21T09:29:05.855Z,58.36
2019-04-21T09:29:55.885Z,57.49
2019-04-21T09:30:55.960Z,57.59
2019-04-21T09:31:55.081Z,56.62
2019-04-21T09:32:54.463Z,56.62
2019-04-21T09:33:54.404Z,56.33
2019-04-21T09:34:52.673Z,56.07
2019-04-21T09:35:58.724Z,56.36
2019-04-21T09:36:54.889Z,56.07
2019-04-21T09:38:00.232Z,56.65
2019-04-21T09:39:00.205Z,54.72
2019-04-21T09:39:53.542Z,54.36
2019-04-21T09:40:54.011Z,53.39
2019-04-21T09:41:54.543Z,53.97
2019-04-21T09:42:57.478Z,53.69
2019-04-21T09:43:54.017Z,54.27
2019-04-21T09:44:55.652Z,53.61
2019-04-21T09:45:51.935Z,54.29
2019-04-21T09:46:54.893Z,54.68
2019-04-21T09:47:59.012Z,53.42
2019-04-21T09:48:58.644Z,52.55
2019-04-21T09:49:51.687Z,51.10
2019-04-21T09:50:50.520Z,49.85
2019-04-21T09:51:50.613Z,50.13
2019-04-21T09:52:58.240Z,49.87
2019-04-21T09:53:57.227Z,50.35
2019-04-21T09:54:58.639Z,49.97
2019-04-21T09:55:56.774Z,50.45
2019-04-21T09:56:54.980Z,50.93
2019-04-21T09:57:55.684Z,51.23
2019-04-21T09:58:57.375Z,51.15
2019-04-21T10:00:02.146Z,50.48
2019-04-21T10:01:01.405Z,50.38
2019-04-21T10:01:59.174Z,49.99
2019-04-21T10:02:59.955Z,49.70
2019-04-21T10:03:56.666Z,50.09
2019-04-21T10:04:50.533Z,49.10
2019-04-21T10:05:50.277Z,49.19
2019-04-21T10:06:50.305Z,49.51
2019-04-21T10:07:50.781Z,48.44
2019-04-21T10:08:57.520Z,48.44
2019-04-21T10:09:50.104Z,49.02
2019-04-21T10:10:51.144Z,49.41
2019-04-21T10:11:50.485Z,48.74
2019-04-21T10:12:50.004Z,49.22
2019-04-21T10:13:50.729Z,49.05
2019-04-21T10:14:50.258Z,48.47
2019-04-21T10:15:49.891Z,48.08
2019-04-21T10:16:49.881Z,48.18
2019-04-21T10:17:51.997Z,48.37
2019-04-21T10:18:50.438Z,46.63
2019-04-21T10:19:50.686Z,48.27
2019-04-21T10:20:51.240Z,47.79
2019-04-21T10:21:50.155Z,47.50
2019-04-21T10:22:50.867Z,46.44
2019-04-21T10:23:50.104Z,46.73
2019-04-21T10:24:50.438Z,48.47
2019-04-21T10:25:50.590Z,47.43
2019-04-21T10:26:51.360Z,48.01
2019-04-21T10:27:51.246Z,47.50
2019-04-21T10:28:50.980Z,46.84
2019-04-21T10:29:50.554Z,47.11
2019-04-21T10:30:50.873Z,47.52
2019-04-21T10:31:50.518Z,47.41
2019-04-21T10:32:50.231Z,46.46
2019-04-21T10:33:50.298Z,46.84
2019-04-21T10:34:49.706Z,47.43
2019-04-21T10:35:50.793Z,48.30
2019-04-21T10:36:51.173Z,47.72
2019-04-21T10:38:02.744Z,47.04
2019-04-21T10:38:52.206Z,46.75
2019-04-21T10:39:49.637Z,46.58
2019-04-21T10:40:49.709Z,46.58
2019-04-21T10:41:49.446Z,46.00
2019-04-21T10:42:50.071Z,45.42
2019-04-21T10:43:49.530Z,45.71
2019-04-21T10:44:49.665Z,44.93
2019-04-21T10:45:50.621Z,44.64
2019-04-21T10:46:51.843Z,44.26
2019-04-21T10:47:49.370Z,45.49
2019-04-21T10:48:50.566Z,45.03
2019-04-21T10:49:50.667Z,45.22
2019-04-21T10:50:49.418Z,45.42
2019-04-21T10:51:49.305Z,44.93
2019-04-21T10:52:49.447Z,44.35
2019-04-21T10:53:52.378Z,44.45
2019-04-21T10:55:11.158Z,44.64
2019-04-21T10:56:12.203Z,44.93
2019-04-21T10:57:56.590Z,44.96
2019-04-21T10:58:58.261Z,44.18
2019-04-21T10:59:58.195Z,43.89
2019-04-21T11:00:57.833Z,44.09
2019-04-21T11:01:56.850Z,43.60
2019-04-21T11:02:56.927Z,43.99
2019-04-21T11:03:58.546Z,43.31
2019-04-21T11:04:56.678Z,43.21
2019-04-21T11:05:56.690Z,42.90
2019-04-21T11:06:59.424Z,42.90
2019-04-21T11:08:09.049Z,43.00
2019-04-21T11:08:59.001Z,42.59
2019-04-21T11:09:56.102Z,43.55
2019-04-21T11:10:56.493Z,44.16
2019-04-21T11:11:55.996Z,43.79
2019-04-21T11:12:56.825Z,44.76
2019-04-21T11:13:56.820Z,43.60
2019-04-21T11:14:56.885Z,41.78
2019-04-21T11:15:57.037Z,41.39
2019-04-21T11:16:56.598Z,41.22
2019-04-21T11:17:55.778Z,40.15
2019-04-21T11:18:55.933Z,40.92
2019-04-21T11:19:56.953Z,40.83
2019-04-21T11:20:55.664Z,39.86
2019-04-21T11:21:56.758Z,40.83
2019-04-21T11:22:55.979Z,40.44
2019-04-21T11:23:56.533Z,39.88
2019-04-21T11:24:56.573Z,39.39
2019-04-21T11:25:55.866Z,39.04
2019-04-21T11:26:55.899Z,39.06
2019-04-21T11:27:55.694Z,37.74
2019-04-21T11:28:56.725Z,36.51
2019-04-21T11:29:55.864Z,35.73
2019-04-21T11:30:57.035Z,34.78
2019-04-21T11:31:56.765Z,34.89
2019-04-21T11:32:55.406Z,33.64
2019-04-21T11:33:55.437Z,33.85
2019-04-21T11:34:55.257Z,34.73
2019-04-21T11:35:55.446Z,33.75
2019-04-21T11:36:56.341Z,33.67
2019-04-21T11:38:04.573Z,33.95
2019-04-21T11:39:09.833Z,33.79
2019-04-21T11:40:02.707Z,33.48
2019-04-21T11:40:55.920Z,33.89
2019-04-21T11:41:55.124Z,32.34
2019-04-21T11:42:55.610Z,32.65
2019-04-21T11:43:55.174Z,32.43
2019-04-21T11:44:55.422Z,32.16
2019-04-21T11:45:54.998Z,31.18
2019-04-21T11:46:56.249Z,30.10
2019-04-21T11:47:56.342Z,29.70
2019-04-21T11:48:55.051Z,30.09
2019-04-21T11:49:55.069Z,28.91
2019-04-21T11:50:55.271Z,27.91
2019-04-21T11:51:56.347Z,29.15
2019-04-21T11:52:54.961Z,30.52
2019-04-21T11:53:55.077Z,31.70
2019-04-21T11:54:55.107Z,30.54
2019-04-21T11:55:55.550Z,31.41
2019-04-21T11:56:55.033Z,31.12
2019-04-21T11:57:56.422Z,30.52
2019-04-21T11:58:54.834Z,30.05
2019-04-21T11:59:55.523Z,30.45
2019-04-21T12:00:55.724Z,30.38
2019-04-21T12:01:54.693Z,30.30
2019-04-21T12:02:55.419Z,29.91
2019-04-21T12:03:55.706Z,29.47
2019-04-21T12:04:54.665Z,30.35
2019-04-21T12:05:55.289Z,30.73
2019-04-21T12:06:55.927Z,30.73
2019-04-21T12:07:58.304Z,30.93
2019-04-21T12:08:57.721Z,31.25
2019-04-21T12:09:55.502Z,30.37
2019-04-21T12:10:55.498Z,30.45
2019-04-21T12:11:54.615Z,31.13
2019-04-21T12:12:55.168Z,30.86
2019-04-21T12:13:54.456Z,30.08
2019-04-21T12:14:54.748Z,30.16
2019-04-21T12:15:54.847Z,30.16
2019-04-21T12:16:55.159Z,30.83
2019-04-21T12:17:54.486Z,31.04
2019-04-21T12:18:54.688Z,30.47
2019-04-21T12:19:54.761Z,29.80
2019-04-21T12:20:55.575Z,29.61
2019-04-21T12:22:05.282Z,29.91
2019-04-21T12:22:54.915Z,30.12
2019-04-21T12:23:54.418Z,30.23
2019-04-21T12:24:55.493Z,29.36
2019-04-21T12:25:54.812Z,29.27
2019-04-21T12:26:54.325Z,29.68
2019-04-21T12:27:54.325Z,28.45
2019-04-21T12:28:55.738Z,29.22
2019-04-21T12:29:55.261Z,29.11
2019-04-21T12:30:54.177Z,28.42
2019-04-21T12:31:54.158Z,29.31
2019-04-21T12:32:54.117Z,30.10
2019-04-21T12:33:54.354Z,29.52
2019-04-21T12:34:55.312Z,29.99
2019-04-21T12:35:54.183Z,30.49
2019-04-21T12:36:54.969Z,30.88
2019-04-21T12:37:55.049Z,32.19
2019-04-21T12:38:57.834Z,30.52
2019-04-21T12:39:54.749Z,30.43
2019-04-21T12:40:54.864Z,30.33
2019-04-21T12:41:54.297Z,30.23
2019-04-21T12:42:54.877Z,30.35
2019-04-21T12:43:54.982Z,30.13
2019-04-21T12:44:55.041Z,29.87
2019-04-21T12:45:53.907Z,30.00
2019-04-21T12:46:54.108Z,29.28
2019-04-21T12:47:54.044Z,28.92
2019-04-21T12:48:54.081Z,29.33
2019-04-21T12:49:54.084Z,29.02
2019-04-21T12:50:54.251Z,29.20
2019-04-21T12:51:53.818Z,29.11
2019-04-21T12:52:53.795Z,29.03
2019-04-21T12:53:54.074Z,29.21
2019-04-21T12:54:53.769Z,28.44
2019-04-21T12:55:53.905Z,28.63
2019-04-21T12:56:53.927Z,28.69
2019-04-21T12:57:55.128Z,28.02
2019-04-21T12:58:53.833Z,28.30
2019-04-21T12:59:54.919Z,28.41
2019-04-21T13:00:54.723Z,28.69
2019-04-21T13:01:54.825Z,29.04
2019-04-21T13:02:53.998Z,29.93
2019-04-21T13:03:53.895Z,30.12
2019-04-21T13:04:54.593Z,29.71
2019-04-21T13:05:53.806Z,29.94
2019-04-21T13:06:53.606Z,30.15
2019-04-21T13:07:53.673Z,29.44
2019-04-21T13:09:01.450Z,28.96
2019-04-21T13:09:54.591Z,28.89
2019-04-21T13:10:53.962Z,29.13
2019-04-21T13:11:53.521Z,30.30
2019-04-21T13:12:54.260Z,30.00
2019-04-21T13:13:53.697Z,29.94
2019-04-21T13:14:55.911Z,29.74
2019-04-21T13:15:53.530Z,29.93
2019-04-21T13:16:53.497Z,29.81
2019-04-21T13:17:54.213Z,30.13
2019-04-21T13:18:53.561Z,30.15
2019-04-21T13:19:53.623Z,30.36
2019-04-21T13:20:54.027Z,30.23
2019-04-21T13:21:54.026Z,30.74
2019-04-21T13:22:54.342Z,32.10
2019-04-21T13:23:54.704Z,32.34
2019-04-21T13:24:53.856Z,30.39
2019-04-21T13:25:54.165Z,30.42
2019-04-21T13:26:58.110Z,29.83
2019-04-21T13:27:54.472Z,28.26
2019-04-21T13:28:54.237Z,28.82
2019-04-21T13:29:54.461Z,28.53
2019-04-21T13:30:54.012Z,28.93
2019-04-21T13:31:54.280Z,28.36
2019-04-21T13:32:53.543Z,28.15
2019-04-21T13:33:53.457Z,27.75
2019-04-21T13:34:54.879Z,27.55
2019-04-21T13:35:53.295Z,29.13
2019-04-21T13:36:53.959Z,28.91
2019-04-21T13:37:54.403Z,29.14
2019-04-21T13:39:24.961Z,29.22
2019-04-21T13:40:14.654Z,29.11
2019-04-21T13:41:11.877Z,29.74
2019-04-21T13:42:02.755Z,30.57
2019-04-21T13:42:57.235Z,30.18
2019-04-21T13:43:53.147Z,30.40
2019-04-21T13:44:56.194Z,29.47
2019-04-21T13:45:54.087Z,29.09
2019-04-21T13:46:54.496Z,28.50
2019-04-21T13:47:54.480Z,27.78
2019-04-21T13:48:54.727Z,29.62
2019-04-21T13:49:54.848Z,29.64
2019-04-21T13:50:53.447Z,29.37
2019-04-21T13:51:54.186Z,29.58
2019-04-21T13:52:54.346Z,28.47
2019-04-21T13:53:53.634Z,29.14
2019-04-21T13:54:53.768Z,28.99
2019-04-21T13:55:53.237Z,28.50
2019-04-21T13:56:54.251Z,28.47
2019-04-21T13:57:54.445Z,28.20
2019-04-21T13:58:52.979Z,27.33
2019-04-21T13:59:53.166Z,27.54
2019-04-21T14:00:54.228Z,26.56
2019-04-21T14:01:54.037Z,27.31
2019-04-21T14:02:54.480Z,27.57
2019-04-21T14:03:53.544Z,28.43
2019-04-21T14:04:53.698Z,28.27
2019-04-21T14:05:54.139Z,28.54
2019-04-21T14:06:54.172Z,28.53
2019-04-21T14:07:54.370Z,28.06
2019-04-21T14:08:52.875Z,28.29
2019-04-21T14:09:57.703Z,28.17
2019-04-21T14:10:53.600Z,28.17
2019-04-21T14:11:55.334Z,27.85
2019-04-21T14:12:54.129Z,29.02
2019-04-21T14:13:54.295Z,29.50
2019-04-21T14:14:54.327Z,29.55
2019-04-21T14:15:53.852Z,29.14
2019-04-21T14:16:54.157Z,29.07
2019-04-21T14:17:53.197Z,28.58
2019-04-21T14:18:52.898Z,28.44
2019-04-21T14:19:53.169Z,29.62
2019-04-21T14:20:53.374Z,29.44
2019-04-21T14:21:53.223Z,29.03
2019-04-21T14:22:53.903Z,29.20
2019-04-21T14:23:54.271Z,29.13
2019-04-21T14:24:53.874Z,28.86
2019-04-21T14:25:53.350Z,28.29
2019-04-21T14:26:52.709Z,28.17
2019-04-21T14:27:54.559Z,28.86
2019-04-21T14:28:52.707Z,28.68
2019-04-21T14:29:53.541Z,29.13
2019-04-21T14:30:52.814Z,30.04
2019-04-21T14:31:52.759Z,29.34
2019-04-21T14:32:54.013Z,29.45
2019-04-21T14:33:54.125Z,28.95
2019-04-21T14:34:54.067Z,29.22
2019-04-21T14:35:52.766Z,29.16
2019-04-21T14:36:52.923Z,29.28
2019-04-21T14:37:52.951Z,28.12
2019-04-21T14:38:52.655Z,27.53
2019-04-21T14:39:59.872Z,27.74
2019-04-21T14:40:52.613Z,27.25
2019-04-21T14:41:53.761Z,27.43
2019-04-21T14:42:53.989Z,28.11
2019-04-21T14:43:52.969Z,27.44
2019-04-21T14:44:52.581Z,27.74
2019-04-21T14:45:52.802Z,27.96
2019-04-21T14:46:53.279Z,26.47
2019-04-21T14:47:54.254Z,26.85
2019-04-21T14:48:53.048Z,28.39
2019-04-21T14:49:53.234Z,28.39
2019-04-21T14:50:52.564Z,29.13
2019-04-21T14:51:52.769Z,29.10
2019-04-21T14:52:52.870Z,28.43
2019-04-21T14:53:53.735Z,28.55
2019-04-21T14:54:52.534Z,28.43
2019-04-21T14:55:53.191Z,29.16
2019-04-21T14:56:53.422Z,28.83
2019-04-21T14:57:52.472Z,29.31
2019-04-21T14:58:55.589Z,29.31
2019-04-21T14:59:53.060Z,29.45
2019-04-21T15:00:52.963Z,28.68
2019-04-21T15:01:53.624Z,28.31
2019-04-21T15:02:53.695Z,28.93
2019-04-21T15:03:52.463Z,29.22
2019-04-21T15:04:53.598Z,29.13
2019-04-21T15:05:53.490Z,29.20
2019-04-21T15:06:52.397Z,29.88